sensor_id;sensor_type;location;lat;lon;timestamp;temperature;humidity
7686;DHT22;3885;51.474;-2.576;2023-07-20T00:00:59;13.00;99.90
7686;DHT22;3885;51.474;-2.576;2023-07-20T00:03:27;13.00;99.90
7686;DHT22;3885;51.474;-2.576;2023-07-20T00:05:54;12.90;99.90
7686;DHT22;3885;51.474;-2.576;2023-07-20T00:08:21;12.90;99.90
7686;DHT22;3885;51.474;-2.576;2023-07-20T00:10:48;12.90;99.90
7686;DHT22;3885;51.474;-2.576;2023-07-20T00:13:15;12.80;99.90
7686;DHT22;3885;51.474;-2.576;2023-07-20T00:15:44;12.80;99.90
7686;DHT22;3885;51.474;-2.576;2023-07-20T00:18:11;12.70;99.90
7686;DHT22;3885;51.474;-2.576;2023-07-20T00:20:39;12.70;99.90
7686;DHT22;3885;51.474;-2.576;2023-07-20T00:23:06;12.60;99.90
7686;DHT22;3885;51.474;-2.576;2023-07-20T00:25:33;12.60;99.90
7686;DHT22;3885;51.474;-2.576;2023-07-20T00:28:00;12.60;99.90
7686;DHT22;3885;51.474;-2.576;2023-07-20T00:30:27;12.50;99.90
7686;DHT22;3885;51.474;-2.576;2023-07-20T00:32:54;12.40;99.90
7686;DHT22;3885;51.474;-2.576;2023-07-20T00:35:21;12.40;99.90
7686;DHT22;3885;51.474;-2.576;2023-07-20T00:37:49;12.40;99.90
7686;DHT22;3885;51.474;-2.576;2023-07-20T00:40:16;12.30;99.90
7686;DHT22;3885;51.474;-2.576;2023-07-20T00:42:43;12.30;99.90
7686;DHT22;3885;51.474;-2.576;2023-07-20T00:45:10;12.20;99.90
7686;DHT22;3885;51.474;-2.576;2023-07-20T00:47:37;12.20;99.90
7686;DHT22;3885;51.474;-2.576;2023-07-20T00:50:05;12.20;99.90
7686;DHT22;3885;51.474;-2.576;2023-07-20T00:52:33;12.10;99.90
7686;DHT22;3885;51.474;-2.576;2023-07-20T00:55:01;12.10;99.90
7686;DHT22;3885;51.474;-2.576;2023-07-20T00:57:28;12.10;99.90
7686;DHT22;3885;51.474;-2.576;2023-07-20T00:59:56;12.00;99.90
7686;DHT22;3885;51.474;-2.576;2023-07-20T01:02:22;12.00;99.90
7686;DHT22;3885;51.474;-2.576;2023-07-20T01:04:49;12.00;99.90
7686;DHT22;3885;51.474;-2.576;2023-07-20T01:07:24;12.00;99.90
7686;DHT22;3885;51.474;-2.576;2023-07-20T01:10:00;11.90;99.90
7686;DHT22;3885;51.474;-2.576;2023-07-20T01:12:33;11.90;99.90
7686;DHT22;3885;51.474;-2.576;2023-07-20T01:15:03;11.80;99.90
7686;DHT22;3885;51.474;-2.576;2023-07-20T01:17:30;11.80;99.90
7686;DHT22;3885;51.474;-2.576;2023-07-20T01:19:57;11.80;99.90
7686;DHT22;3885;51.474;-2.576;2023-07-20T01:22:38;11.70;99.90
7686;DHT22;3885;51.474;-2.576;2023-07-20T01:25:24;11.70;99.90
7686;DHT22;3885;51.474;-2.576;2023-07-20T01:28:21;11.60;99.90
7686;DHT22;3885;51.474;-2.576;2023-07-20T01:33:28;11.50;99.90
7686;DHT22;3885;51.474;-2.576;2023-07-20T01:35:58;11.40;99.90
7686;DHT22;3885;51.474;-2.576;2023-07-20T01:38:26;11.40;99.90
7686;DHT22;3885;51.474;-2.576;2023-07-20T01:40:53;11.40;99.90
7686;DHT22;3885;51.474;-2.576;2023-07-20T01:43:20;11.40;99.90
7686;DHT22;3885;51.474;-2.576;2023-07-20T01:48:14;11.30;99.90
7686;DHT22;3885;51.474;-2.576;2023-07-20T01:50:43;11.30;99.90
7686;DHT22;3885;51.474;-2.576;2023-07-20T01:53:10;11.20;99.90
7686;DHT22;3885;51.474;-2.576;2023-07-20T01:55:37;11.20;99.90
7686;DHT22;3885;51.474;-2.576;2023-07-20T01:58:04;11.20;99.90
7686;DHT22;3885;51.474;-2.576;2023-07-20T02:00:31;11.20;99.90
7686;DHT22;3885;51.474;-2.576;2023-07-20T02:02:58;11.20;99.90
7686;DHT22;3885;51.474;-2.576;2023-07-20T02:07:54;11.20;99.90
7686;DHT22;3885;51.474;-2.576;2023-07-20T02:10:21;11.20;99.90
7686;DHT22;3885;51.474;-2.576;2023-07-20T02:12:47;11.10;99.90
7686;DHT22;3885;51.474;-2.576;2023-07-20T02:15:15;11.10;99.90
7686;DHT22;3885;51.474;-2.576;2023-07-20T02:17:42;11.10;99.90
7686;DHT22;3885;51.474;-2.576;2023-07-20T02:20:10;11.00;99.90
7686;DHT22;3885;51.474;-2.576;2023-07-20T02:22:37;11.00;99.90
7686;DHT22;3885;51.474;-2.576;2023-07-20T02:25:07;11.00;99.90
7686;DHT22;3885;51.474;-2.576;2023-07-20T02:27:34;11.00;99.90
7686;DHT22;3885;51.474;-2.576;2023-07-20T02:30:01;10.90;99.90
7686;DHT22;3885;51.474;-2.576;2023-07-20T02:32:29;10.90;99.90
7686;DHT22;3885;51.474;-2.576;2023-07-20T02:34:56;10.90;99.90
7686;DHT22;3885;51.474;-2.576;2023-07-20T02:37:23;10.80;99.90
7686;DHT22;3885;51.474;-2.576;2023-07-20T02:39:50;10.80;99.90
7686;DHT22;3885;51.474;-2.576;2023-07-20T02:42:19;10.80;99.90
7686;DHT22;3885;51.474;-2.576;2023-07-20T02:44:48;10.80;99.90
7686;DHT22;3885;51.474;-2.576;2023-07-20T02:47:15;10.70;99.90
7686;DHT22;3885;51.474;-2.576;2023-07-20T02:49:42;10.70;99.90
7686;DHT22;3885;51.474;-2.576;2023-07-20T02:52:09;10.60;99.90
7686;DHT22;3885;51.474;-2.576;2023-07-20T02:54:36;10.60;99.90
7686;DHT22;3885;51.474;-2.576;2023-07-20T02:57:03;10.60;99.90
7686;DHT22;3885;51.474;-2.576;2023-07-20T02:59:32;10.60;99.90
7686;DHT22;3885;51.474;-2.576;2023-07-20T03:01:58;10.60;99.90
7686;DHT22;3885;51.474;-2.576;2023-07-20T03:04:26;10.60;99.90
7686;DHT22;3885;51.474;-2.576;2023-07-20T03:06:53;10.60;99.90
7686;DHT22;3885;51.474;-2.576;2023-07-20T03:09:20;10.50;99.90
7686;DHT22;3885;51.474;-2.576;2023-07-20T03:11:48;10.50;99.90
7686;DHT22;3885;51.474;-2.576;2023-07-20T03:14:15;10.50;99.90
7686;DHT22;3885;51.474;-2.576;2023-07-20T03:16:43;10.50;99.90
7686;DHT22;3885;51.474;-2.576;2023-07-20T03:21:37;10.40;99.90
7686;DHT22;3885;51.474;-2.576;2023-07-20T03:24:06;10.40;99.90
7686;DHT22;3885;51.474;-2.576;2023-07-20T03:26:34;10.30;99.90
7686;DHT22;3885;51.474;-2.576;2023-07-20T03:29:01;10.30;99.90
7686;DHT22;3885;51.474;-2.576;2023-07-20T03:31:28;10.30;99.90
7686;DHT22;3885;51.474;-2.576;2023-07-20T03:33:56;10.30;99.90
7686;DHT22;3885;51.474;-2.576;2023-07-20T03:36:23;10.30;99.90
7686;DHT22;3885;51.474;-2.576;2023-07-20T03:38:50;10.20;99.90
7686;DHT22;3885;51.474;-2.576;2023-07-20T03:41:17;10.20;99.90
7686;DHT22;3885;51.474;-2.576;2023-07-20T03:43:45;10.20;99.90
7686;DHT22;3885;51.474;-2.576;2023-07-20T03:46:12;10.20;99.90
7686;DHT22;3885;51.474;-2.576;2023-07-20T03:48:39;10.10;99.90
7686;DHT22;3885;51.474;-2.576;2023-07-20T03:51:07;10.10;99.90
7686;DHT22;3885;51.474;-2.576;2023-07-20T03:53:34;10.10;99.90
7686;DHT22;3885;51.474;-2.576;2023-07-20T03:56:01;10.10;99.90
7686;DHT22;3885;51.474;-2.576;2023-07-20T03:58:28;10.10;99.90
7686;DHT22;3885;51.474;-2.576;2023-07-20T04:00:55;10.10;99.90
7686;DHT22;3885;51.474;-2.576;2023-07-20T04:03:24;10.00;99.90
7686;DHT22;3885;51.474;-2.576;2023-07-20T04:05:53;10.00;99.90
7686;DHT22;3885;51.474;-2.576;2023-07-20T04:08:23;10.00;99.90
7686;DHT22;3885;51.474;-2.576;2023-07-20T04:13:17;10.00;99.90
7686;DHT22;3885;51.474;-2.576;2023-07-20T04:15:45;9.90;99.90
7686;DHT22;3885;51.474;-2.576;2023-07-20T04:18:11;9.90;99.90
7686;DHT22;3885;51.474;-2.576;2023-07-20T04:20:38;9.90;99.90
7686;DHT22;3885;51.474;-2.576;2023-07-20T04:25:35;9.90;99.90
7686;DHT22;3885;51.474;-2.576;2023-07-20T04:28:06;9.90;99.90
7686;DHT22;3885;51.474;-2.576;2023-07-20T04:30:35;9.90;99.90
7686;DHT22;3885;51.474;-2.576;2023-07-20T04:33:03;9.90;99.90
7686;DHT22;3885;51.474;-2.576;2023-07-20T04:35:50;9.90;99.90
7686;DHT22;3885;51.474;-2.576;2023-07-20T04:38:18;9.90;99.90
7686;DHT22;3885;51.474;-2.576;2023-07-20T04:40:48;9.90;99.90
7686;DHT22;3885;51.474;-2.576;2023-07-20T04:43:15;9.80;99.90
7686;DHT22;3885;51.474;-2.576;2023-07-20T04:45:42;9.80;99.90
7686;DHT22;3885;51.474;-2.576;2023-07-20T04:48:12;9.80;99.90
7686;DHT22;3885;51.474;-2.576;2023-07-20T04:50:40;9.90;99.90
7686;DHT22;3885;51.474;-2.576;2023-07-20T04:53:08;9.90;99.90
7686;DHT22;3885;51.474;-2.576;2023-07-20T04:55:35;9.90;99.90
7686;DHT22;3885;51.474;-2.576;2023-07-20T04:58:04;9.90;99.90
7686;DHT22;3885;51.474;-2.576;2023-07-20T05:02:59;9.90;99.90
7686;DHT22;3885;51.474;-2.576;2023-07-20T05:05:26;10.00;99.90
7686;DHT22;3885;51.474;-2.576;2023-07-20T05:07:53;10.00;99.90
7686;DHT22;3885;51.474;-2.576;2023-07-20T05:10:20;10.00;99.90
7686;DHT22;3885;51.474;-2.576;2023-07-20T05:12:47;10.10;99.90
7686;DHT22;3885;51.474;-2.576;2023-07-20T05:15:16;10.10;99.90
7686;DHT22;3885;51.474;-2.576;2023-07-20T05:17:42;10.20;99.90
7686;DHT22;3885;51.474;-2.576;2023-07-20T05:20:10;10.20;99.90
7686;DHT22;3885;51.474;-2.576;2023-07-20T05:22:38;10.30;99.90
7686;DHT22;3885;51.474;-2.576;2023-07-20T05:25:07;10.40;99.90
7686;DHT22;3885;51.474;-2.576;2023-07-20T05:27:35;10.40;99.90
7686;DHT22;3885;51.474;-2.576;2023-07-20T05:30:03;10.50;99.90
7686;DHT22;3885;51.474;-2.576;2023-07-20T05:32:32;10.60;99.90
7686;DHT22;3885;51.474;-2.576;2023-07-20T05:37:26;10.90;99.90
7686;DHT22;3885;51.474;-2.576;2023-07-20T05:39:53;11.10;99.90
7686;DHT22;3885;51.474;-2.576;2023-07-20T05:42:20;11.40;99.90
7686;DHT22;3885;51.474;-2.576;2023-07-20T05:44:47;11.70;99.90
7686;DHT22;3885;51.474;-2.576;2023-07-20T05:47:15;11.90;99.90
7686;DHT22;3885;51.474;-2.576;2023-07-20T05:49:43;12.10;99.90
7686;DHT22;3885;51.474;-2.576;2023-07-20T05:52:10;12.20;99.90
7686;DHT22;3885;51.474;-2.576;2023-07-20T05:54:37;12.50;99.90
7686;DHT22;3885;51.474;-2.576;2023-07-20T05:57:05;12.60;99.90
7686;DHT22;3885;51.474;-2.576;2023-07-20T05:59:32;12.70;99.90
7686;DHT22;3885;51.474;-2.576;2023-07-20T06:01:59;12.90;99.90
7686;DHT22;3885;51.474;-2.576;2023-07-20T06:04:26;13.10;99.90
7686;DHT22;3885;51.474;-2.576;2023-07-20T06:06:54;13.30;99.90
7686;DHT22;3885;51.474;-2.576;2023-07-20T06:11:48;13.60;99.90
7686;DHT22;3885;51.474;-2.576;2023-07-20T06:16:44;14.00;99.90
7686;DHT22;3885;51.474;-2.576;2023-07-20T06:19:10;14.10;99.90
7686;DHT22;3885;51.474;-2.576;2023-07-20T06:21:37;14.30;99.90
7686;DHT22;3885;51.474;-2.576;2023-07-20T06:26:33;14.50;99.90
7686;DHT22;3885;51.474;-2.576;2023-07-20T06:29:04;14.60;99.90
7686;DHT22;3885;51.474;-2.576;2023-07-20T06:31:31;14.70;99.90
7686;DHT22;3885;51.474;-2.576;2023-07-20T06:33:58;14.80;99.90
7686;DHT22;3885;51.474;-2.576;2023-07-20T06:36:26;15.00;99.90
7686;DHT22;3885;51.474;-2.576;2023-07-20T06:38:53;15.10;99.90
7686;DHT22;3885;51.474;-2.576;2023-07-20T06:41:22;15.20;99.90
7686;DHT22;3885;51.474;-2.576;2023-07-20T06:43:49;15.30;99.90
7686;DHT22;3885;51.474;-2.576;2023-07-20T06:46:16;15.40;99.90
7686;DHT22;3885;51.474;-2.576;2023-07-20T06:48:43;15.50;99.90
7686;DHT22;3885;51.474;-2.576;2023-07-20T06:51:10;15.50;99.90
7686;DHT22;3885;51.474;-2.576;2023-07-20T06:53:37;15.60;99.90
7686;DHT22;3885;51.474;-2.576;2023-07-20T06:56:04;15.70;99.90
7686;DHT22;3885;51.474;-2.576;2023-07-20T06:58:32;15.70;99.90
7686;DHT22;3885;51.474;-2.576;2023-07-20T07:00:59;15.70;99.90
7686;DHT22;3885;51.474;-2.576;2023-07-20T07:03:26;15.70;99.90
7686;DHT22;3885;51.474;-2.576;2023-07-20T07:05:55;15.70;99.90
7686;DHT22;3885;51.474;-2.576;2023-07-20T07:08:22;15.60;99.90
7686;DHT22;3885;51.474;-2.576;2023-07-20T07:10:49;15.70;99.90
7686;DHT22;3885;51.474;-2.576;2023-07-20T07:20:39;16.20;99.90
7686;DHT22;3885;51.474;-2.576;2023-07-20T07:23:06;16.30;99.90
7686;DHT22;3885;51.474;-2.576;2023-07-20T07:25:33;16.50;99.90
7686;DHT22;3885;51.474;-2.576;2023-07-20T07:28:00;16.70;99.90
7686;DHT22;3885;51.474;-2.576;2023-07-20T07:30:27;16.90;99.90
7686;DHT22;3885;51.474;-2.576;2023-07-20T07:35:22;17.00;99.90
7686;DHT22;3885;51.474;-2.576;2023-07-20T07:37:49;17.10;99.90
7686;DHT22;3885;51.474;-2.576;2023-07-20T07:40:16;17.20;99.90
7686;DHT22;3885;51.474;-2.576;2023-07-20T07:45:11;17.50;99.90
7686;DHT22;3885;51.474;-2.576;2023-07-20T07:47:39;17.80;99.90
7686;DHT22;3885;51.474;-2.576;2023-07-20T07:50:08;18.10;99.90
7686;DHT22;3885;51.474;-2.576;2023-07-20T07:55:03;18.40;99.90
7686;DHT22;3885;51.474;-2.576;2023-07-20T08:02:25;18.60;99.90
7686;DHT22;3885;51.474;-2.576;2023-07-20T08:04:52;18.70;99.90
7686;DHT22;3885;51.474;-2.576;2023-07-20T08:07:20;18.80;99.90
7686;DHT22;3885;51.474;-2.576;2023-07-20T08:09:47;18.80;99.90
7686;DHT22;3885;51.474;-2.576;2023-07-20T08:12:14;18.80;99.90
7686;DHT22;3885;51.474;-2.576;2023-07-20T08:17:10;19.00;99.90
7686;DHT22;3885;51.474;-2.576;2023-07-20T08:19:37;19.00;99.90
7686;DHT22;3885;51.474;-2.576;2023-07-20T08:24:39;19.30;99.90
7686;DHT22;3885;51.474;-2.576;2023-07-20T08:27:06;19.40;99.90
7686;DHT22;3885;51.474;-2.576;2023-07-20T08:29:34;19.00;99.90
7686;DHT22;3885;51.474;-2.576;2023-07-20T08:32:00;19.00;99.90
7686;DHT22;3885;51.474;-2.576;2023-07-20T08:36:55;18.90;99.90
7686;DHT22;3885;51.474;-2.576;2023-07-20T08:39:22;18.80;99.90
7686;DHT22;3885;51.474;-2.576;2023-07-20T08:41:51;18.90;99.90
7686;DHT22;3885;51.474;-2.576;2023-07-20T08:44:18;19.00;99.90
7686;DHT22;3885;51.474;-2.576;2023-07-20T08:46:47;19.20;99.90
7686;DHT22;3885;51.474;-2.576;2023-07-20T08:51:43;19.30;99.90
7686;DHT22;3885;51.474;-2.576;2023-07-20T08:54:12;19.40;99.90
7686;DHT22;3885;51.474;-2.576;2023-07-20T08:56:41;19.50;99.90
7686;DHT22;3885;51.474;-2.576;2023-07-20T08:59:11;19.70;99.90
7686;DHT22;3885;51.474;-2.576;2023-07-20T09:01:39;19.90;99.90
7686;DHT22;3885;51.474;-2.576;2023-07-20T09:06:35;20.00;99.90
7686;DHT22;3885;51.474;-2.576;2023-07-20T09:09:02;20.10;99.90
7686;DHT22;3885;51.474;-2.576;2023-07-20T09:11:29;20.30;99.90
7686;DHT22;3885;51.474;-2.576;2023-07-20T09:14:04;20.50;99.90
7686;DHT22;3885;51.474;-2.576;2023-07-20T09:16:32;20.60;99.90
7686;DHT22;3885;51.474;-2.576;2023-07-20T09:18:59;20.30;99.90
7686;DHT22;3885;51.474;-2.576;2023-07-20T09:21:29;20.00;99.90
7686;DHT22;3885;51.474;-2.576;2023-07-20T09:23:56;19.90;99.90
7686;DHT22;3885;51.474;-2.576;2023-07-20T09:28:52;19.70;99.90
7686;DHT22;3885;51.474;-2.576;2023-07-20T09:31:21;19.70;99.90
7686;DHT22;3885;51.474;-2.576;2023-07-20T09:33:52;19.70;99.90
7686;DHT22;3885;51.474;-2.576;2023-07-20T09:36:20;19.90;99.90
7686;DHT22;3885;51.474;-2.576;2023-07-20T09:38:47;20.10;99.90
7686;DHT22;3885;51.474;-2.576;2023-07-20T09:41:14;20.20;99.90
7686;DHT22;3885;51.474;-2.576;2023-07-20T09:43:42;20.30;99.90
7686;DHT22;3885;51.474;-2.576;2023-07-20T09:46:09;20.10;99.90
7686;DHT22;3885;51.474;-2.576;2023-07-20T09:48:36;20.40;99.90
7686;DHT22;3885;51.474;-2.576;2023-07-20T09:51:06;20.70;99.90
7686;DHT22;3885;51.474;-2.576;2023-07-20T09:53:34;21.00;99.90
7686;DHT22;3885;51.474;-2.576;2023-07-20T09:56:02;21.20;99.90
7686;DHT22;3885;51.474;-2.576;2023-07-20T09:58:30;21.50;99.90
7686;DHT22;3885;51.474;-2.576;2023-07-20T10:00:59;21.80;99.90
7686;DHT22;3885;51.474;-2.576;2023-07-20T10:03:29;22.00;99.90
7686;DHT22;3885;51.474;-2.576;2023-07-20T10:06:00;21.70;99.90
7686;DHT22;3885;51.474;-2.576;2023-07-20T10:08:29;21.30;99.90
7686;DHT22;3885;51.474;-2.576;2023-07-20T10:10:59;21.20;99.90
7686;DHT22;3885;51.474;-2.576;2023-07-20T10:13:28;21.00;99.90
7686;DHT22;3885;51.474;-2.576;2023-07-20T10:16:01;20.60;99.90
7686;DHT22;3885;51.474;-2.576;2023-07-20T10:18:31;20.50;99.90
7686;DHT22;3885;51.474;-2.576;2023-07-20T10:21:02;20.50;99.90
7686;DHT22;3885;51.474;-2.576;2023-07-20T10:23:31;20.80;99.90
7686;DHT22;3885;51.474;-2.576;2023-07-20T10:25:59;20.90;99.90
7686;DHT22;3885;51.474;-2.576;2023-07-20T10:28:27;21.00;99.90
7686;DHT22;3885;51.474;-2.576;2023-07-20T10:30:54;21.20;99.90
7686;DHT22;3885;51.474;-2.576;2023-07-20T10:35:54;21.30;99.90
7686;DHT22;3885;51.474;-2.576;2023-07-20T10:38:40;21.30;99.90
7686;DHT22;3885;51.474;-2.576;2023-07-20T10:41:16;21.40;99.90
7686;DHT22;3885;51.474;-2.576;2023-07-20T10:43:44;21.30;99.90
7686;DHT22;3885;51.474;-2.576;2023-07-20T10:46:12;21.30;99.90
7686;DHT22;3885;51.474;-2.576;2023-07-20T10:49:00;21.60;99.90
7686;DHT22;3885;51.474;-2.576;2023-07-20T10:51:28;21.70;99.90
7686;DHT22;3885;51.474;-2.576;2023-07-20T10:53:57;21.70;99.90
7686;DHT22;3885;51.474;-2.576;2023-07-20T10:58:58;21.60;99.90
7686;DHT22;3885;51.474;-2.576;2023-07-20T11:01:28;21.70;99.90
7686;DHT22;3885;51.474;-2.576;2023-07-20T11:03:58;21.80;99.90
7686;DHT22;3885;51.474;-2.576;2023-07-20T11:06:30;21.80;99.90
7686;DHT22;3885;51.474;-2.576;2023-07-20T11:09:08;22.00;99.90
7686;DHT22;3885;51.474;-2.576;2023-07-20T11:11:37;22.10;99.90
7686;DHT22;3885;51.474;-2.576;2023-07-20T11:14:06;22.30;99.90
7686;DHT22;3885;51.474;-2.576;2023-07-20T11:16:38;22.30;99.90
7686;DHT22;3885;51.474;-2.576;2023-07-20T11:19:06;22.40;99.90
7686;DHT22;3885;51.474;-2.576;2023-07-20T11:21:43;22.50;99.90
7686;DHT22;3885;51.474;-2.576;2023-07-20T11:24:12;22.50;99.90
7686;DHT22;3885;51.474;-2.576;2023-07-20T11:26:41;22.30;99.90
7686;DHT22;3885;51.474;-2.576;2023-07-20T11:29:08;22.20;99.90
7686;DHT22;3885;51.474;-2.576;2023-07-20T11:31:37;22.30;99.90
7686;DHT22;3885;51.474;-2.576;2023-07-20T11:34:04;22.30;99.90
7686;DHT22;3885;51.474;-2.576;2023-07-20T11:36:31;22.60;99.90
7686;DHT22;3885;51.474;-2.576;2023-07-20T11:38:59;22.70;99.90
7686;DHT22;3885;51.474;-2.576;2023-07-20T11:41:27;22.80;99.90
7686;DHT22;3885;51.474;-2.576;2023-07-20T11:43:55;23.00;99.90
7686;DHT22;3885;51.474;-2.576;2023-07-20T11:46:22;23.10;99.90
7686;DHT22;3885;51.474;-2.576;2023-07-20T11:48:49;22.90;99.90
7686;DHT22;3885;51.474;-2.576;2023-07-20T11:51:21;22.90;99.90
7686;DHT22;3885;51.474;-2.576;2023-07-20T11:53:49;23.30;99.90
7686;DHT22;3885;51.474;-2.576;2023-07-20T11:56:16;23.20;99.90
7686;DHT22;3885;51.474;-2.576;2023-07-20T11:58:45;23.10;99.90
7686;DHT22;3885;51.474;-2.576;2023-07-20T12:01:13;23.10;99.90
7686;DHT22;3885;51.474;-2.576;2023-07-20T12:03:42;23.20;99.90
7686;DHT22;3885;51.474;-2.576;2023-07-20T12:06:09;22.90;99.90
7686;DHT22;3885;51.474;-2.576;2023-07-20T12:08:38;23.20;99.90
7686;DHT22;3885;51.474;-2.576;2023-07-20T12:11:06;23.40;99.90
7686;DHT22;3885;51.474;-2.576;2023-07-20T12:13:42;23.40;99.90
7686;DHT22;3885;51.474;-2.576;2023-07-20T12:16:12;23.40;99.90
7686;DHT22;3885;51.474;-2.576;2023-07-20T12:18:40;23.60;99.90
7686;DHT22;3885;51.474;-2.576;2023-07-20T12:21:07;23.80;99.90
7686;DHT22;3885;51.474;-2.576;2023-07-20T12:23:41;23.70;99.90
7686;DHT22;3885;51.474;-2.576;2023-07-20T12:28:38;23.60;99.90
7686;DHT22;3885;51.474;-2.576;2023-07-20T12:31:07;23.70;99.90
7686;DHT22;3885;51.474;-2.576;2023-07-20T12:33:35;23.80;99.90
7686;DHT22;3885;51.474;-2.576;2023-07-20T12:36:03;23.80;99.90
7686;DHT22;3885;51.474;-2.576;2023-07-20T12:38:30;24.10;99.90
7686;DHT22;3885;51.474;-2.576;2023-07-20T12:40:57;24.10;99.90
7686;DHT22;3885;51.474;-2.576;2023-07-20T12:43:25;23.90;99.90
7686;DHT22;3885;51.474;-2.576;2023-07-20T12:45:52;24.00;99.90
7686;DHT22;3885;51.474;-2.576;2023-07-20T12:48:20;24.20;99.90
7686;DHT22;3885;51.474;-2.576;2023-07-20T12:50:49;24.30;99.90
7686;DHT22;3885;51.474;-2.576;2023-07-20T12:55:44;24.10;99.90
7686;DHT22;3885;51.474;-2.576;2023-07-20T12:58:12;23.80;99.90
7686;DHT22;3885;51.474;-2.576;2023-07-20T13:00:39;23.80;99.90
7686;DHT22;3885;51.474;-2.576;2023-07-20T13:03:06;23.60;99.90
7686;DHT22;3885;51.474;-2.576;2023-07-20T13:05:34;23.80;99.90
7686;DHT22;3885;51.474;-2.576;2023-07-20T13:08:03;23.80;99.90
7686;DHT22;3885;51.474;-2.576;2023-07-20T13:10:31;23.60;99.90
7686;DHT22;3885;51.474;-2.576;2023-07-20T13:12:58;23.60;99.90
7686;DHT22;3885;51.474;-2.576;2023-07-20T13:15:29;23.50;99.90
7686;DHT22;3885;51.474;-2.576;2023-07-20T13:17:57;23.50;99.90
7686;DHT22;3885;51.474;-2.576;2023-07-20T13:20:25;23.20;99.90
7686;DHT22;3885;51.474;-2.576;2023-07-20T13:22:53;23.40;99.90
7686;DHT22;3885;51.474;-2.576;2023-07-20T13:25:21;23.40;99.90
7686;DHT22;3885;51.474;-2.576;2023-07-20T13:27:48;23.20;99.90
7686;DHT22;3885;51.474;-2.576;2023-07-20T13:30:15;23.30;99.90
7686;DHT22;3885;51.474;-2.576;2023-07-20T13:32:43;23.50;99.90
7686;DHT22;3885;51.474;-2.576;2023-07-20T13:35:10;23.60;99.90
7686;DHT22;3885;51.474;-2.576;2023-07-20T13:37:37;23.30;99.90
7686;DHT22;3885;51.474;-2.576;2023-07-20T13:40:06;23.20;99.90
7686;DHT22;3885;51.474;-2.576;2023-07-20T13:42:35;23.10;99.90
7686;DHT22;3885;51.474;-2.576;2023-07-20T13:45:03;23.20;99.90
7686;DHT22;3885;51.474;-2.576;2023-07-20T13:47:30;23.40;99.90
7686;DHT22;3885;51.474;-2.576;2023-07-20T13:49:57;23.70;99.90
7686;DHT22;3885;51.474;-2.576;2023-07-20T13:52:24;23.70;99.90
7686;DHT22;3885;51.474;-2.576;2023-07-20T13:54:51;23.10;99.90
7686;DHT22;3885;51.474;-2.576;2023-07-20T13:57:18;22.90;99.90
7686;DHT22;3885;51.474;-2.576;2023-07-20T13:59:46;23.10;99.90
7686;DHT22;3885;51.474;-2.576;2023-07-20T14:02:14;23.10;99.90
7686;DHT22;3885;51.474;-2.576;2023-07-20T14:04:41;23.40;99.90
7686;DHT22;3885;51.474;-2.576;2023-07-20T14:07:08;23.60;99.90
7686;DHT22;3885;51.474;-2.576;2023-07-20T14:09:36;23.50;99.90
7686;DHT22;3885;51.474;-2.576;2023-07-20T14:12:04;23.40;99.90
7686;DHT22;3885;51.474;-2.576;2023-07-20T14:14:31;23.30;99.90
7686;DHT22;3885;51.474;-2.576;2023-07-20T14:16:59;23.40;99.90
7686;DHT22;3885;51.474;-2.576;2023-07-20T14:19:26;23.60;99.90
7686;DHT22;3885;51.474;-2.576;2023-07-20T14:21:53;23.70;99.90
7686;DHT22;3885;51.474;-2.576;2023-07-20T14:24:20;24.00;99.90
7686;DHT22;3885;51.474;-2.576;2023-07-20T14:26:47;23.90;99.90
7686;DHT22;3885;51.474;-2.576;2023-07-20T14:29:14;24.00;99.90
7686;DHT22;3885;51.474;-2.576;2023-07-20T14:31:41;23.90;99.90
7686;DHT22;3885;51.474;-2.576;2023-07-20T14:34:10;24.10;99.90
7686;DHT22;3885;51.474;-2.576;2023-07-20T14:36:38;24.10;99.90
7686;DHT22;3885;51.474;-2.576;2023-07-20T14:39:05;24.00;99.90
7686;DHT22;3885;51.474;-2.576;2023-07-20T14:41:32;23.90;99.90
7686;DHT22;3885;51.474;-2.576;2023-07-20T14:43:59;23.80;99.90
7686;DHT22;3885;51.474;-2.576;2023-07-20T14:46:25;23.50;99.90
7686;DHT22;3885;51.474;-2.576;2023-07-20T14:48:52;23.60;99.90
7686;DHT22;3885;51.474;-2.576;2023-07-20T14:51:21;23.60;99.90
7686;DHT22;3885;51.474;-2.576;2023-07-20T14:53:48;23.60;99.90
7686;DHT22;3885;51.474;-2.576;2023-07-20T14:56:14;23.60;99.90
7686;DHT22;3885;51.474;-2.576;2023-07-20T14:58:41;23.40;99.90
7686;DHT22;3885;51.474;-2.576;2023-07-20T15:01:08;23.20;99.90
7686;DHT22;3885;51.474;-2.576;2023-07-20T15:06:03;22.80;99.90
7686;DHT22;3885;51.474;-2.576;2023-07-20T15:08:31;22.60;99.90
7686;DHT22;3885;51.474;-2.576;2023-07-20T15:10:58;22.00;99.90
7686;DHT22;3885;51.474;-2.576;2023-07-20T15:13:25;21.60;99.90
7686;DHT22;3885;51.474;-2.576;2023-07-20T15:15:52;21.10;99.90
7686;DHT22;3885;51.474;-2.576;2023-07-20T15:18:19;20.70;99.90
7686;DHT22;3885;51.474;-2.576;2023-07-20T15:20:46;20.60;99.90
7686;DHT22;3885;51.474;-2.576;2023-07-20T15:25:42;20.50;99.90
7686;DHT22;3885;51.474;-2.576;2023-07-20T15:28:09;20.50;99.90
7686;DHT22;3885;51.474;-2.576;2023-07-20T15:30:36;20.40;99.90
7686;DHT22;3885;51.474;-2.576;2023-07-20T15:33:03;20.40;99.90
7686;DHT22;3885;51.474;-2.576;2023-07-20T15:35:30;20.30;99.90
7686;DHT22;3885;51.474;-2.576;2023-07-20T15:37:57;20.20;99.90
7686;DHT22;3885;51.474;-2.576;2023-07-20T15:40:25;20.20;99.90
7686;DHT22;3885;51.474;-2.576;2023-07-20T15:42:53;20.10;99.90
7686;DHT22;3885;51.474;-2.576;2023-07-20T15:45:20;20.10;99.90
7686;DHT22;3885;51.474;-2.576;2023-07-20T15:47:48;20.00;99.90
7686;DHT22;3885;51.474;-2.576;2023-07-20T15:50:14;20.00;99.90
7686;DHT22;3885;51.474;-2.576;2023-07-20T15:52:42;20.10;99.90
7686;DHT22;3885;51.474;-2.576;2023-07-20T15:55:09;20.00;99.90
7686;DHT22;3885;51.474;-2.576;2023-07-20T15:57:36;20.00;99.90
7686;DHT22;3885;51.474;-2.576;2023-07-20T16:00:06;20.00;99.90
7686;DHT22;3885;51.474;-2.576;2023-07-20T16:02:35;20.00;99.90
7686;DHT22;3885;51.474;-2.576;2023-07-20T16:05:03;20.00;99.90
7686;DHT22;3885;51.474;-2.576;2023-07-20T16:07:29;19.90;99.90
7686;DHT22;3885;51.474;-2.576;2023-07-20T16:09:57;20.00;99.90
7686;DHT22;3885;51.474;-2.576;2023-07-20T16:12:26;20.10;99.90
7686;DHT22;3885;51.474;-2.576;2023-07-20T16:14:56;20.10;99.90
7686;DHT22;3885;51.474;-2.576;2023-07-20T16:17:24;20.00;99.90
7686;DHT22;3885;51.474;-2.576;2023-07-20T16:19:51;20.00;99.90
7686;DHT22;3885;51.474;-2.576;2023-07-20T16:22:18;19.90;99.90
7686;DHT22;3885;51.474;-2.576;2023-07-20T16:24:45;20.00;99.90
7686;DHT22;3885;51.474;-2.576;2023-07-20T16:27:12;20.00;99.90
7686;DHT22;3885;51.474;-2.576;2023-07-20T16:32:06;19.80;99.90
7686;DHT22;3885;51.474;-2.576;2023-07-20T16:34:34;19.80;99.90
7686;DHT22;3885;51.474;-2.576;2023-07-20T16:39:29;19.70;99.90
7686;DHT22;3885;51.474;-2.576;2023-07-20T16:41:56;19.60;99.90
7686;DHT22;3885;51.474;-2.576;2023-07-20T16:44:23;19.50;99.90
7686;DHT22;3885;51.474;-2.576;2023-07-20T16:46:50;19.50;99.90
7686;DHT22;3885;51.474;-2.576;2023-07-20T16:49:17;19.60;99.90
7686;DHT22;3885;51.474;-2.576;2023-07-20T16:51:45;19.60;99.90
7686;DHT22;3885;51.474;-2.576;2023-07-20T16:54:12;19.60;99.90
7686;DHT22;3885;51.474;-2.576;2023-07-20T16:56:39;19.50;99.90
7686;DHT22;3885;51.474;-2.576;2023-07-20T16:59:07;19.60;99.90
7686;DHT22;3885;51.474;-2.576;2023-07-20T17:01:34;19.60;99.90
7686;DHT22;3885;51.474;-2.576;2023-07-20T17:04:01;19.70;99.90
7686;DHT22;3885;51.474;-2.576;2023-07-20T17:06:28;19.70;99.90
7686;DHT22;3885;51.474;-2.576;2023-07-20T17:08:56;19.80;99.90
7686;DHT22;3885;51.474;-2.576;2023-07-20T17:11:25;19.70;99.90
7686;DHT22;3885;51.474;-2.576;2023-07-20T17:13:52;19.70;99.90